createdAt,value
2023-01-30T00:02:40.260Z,33.53
2023-01-30T00:05:45.016Z,29.20
2023-01-30T00:08:49.545Z,31.90
2023-01-30T00:11:54.709Z,30.08
2023-01-30T00:14:59.675Z,28.52
2023-01-30T00:18:04.962Z,27.80
2023-01-30T00:21:13.302Z,30.65
2023-01-30T00:24:21.085Z,29.80
2023-01-30T00:27:25.932Z,30.05
2023-01-30T00:30:30.719Z,30.02
2023-01-30T00:33:38.482Z,35.50
2023-01-30T00:36:42.976Z,30.45
2023-01-30T00:39:47.840Z,32.03
2023-01-30T00:46:51.042Z,31.95
2023-01-30T00:49:55.836Z,28.35
2023-01-30T00:53:00.666Z,30.10
2023-01-30T00:56:06.219Z,31.40
2023-01-30T00:59:10.784Z,30.98
2023-01-30T01:02:15.683Z,32.92
2023-01-30T01:05:20.495Z,32.78
2023-01-30T01:08:25.917Z,32.08
2023-01-30T01:11:31.229Z,32.95
2023-01-30T01:14:36.004Z,31.63
2023-01-30T01:17:42.529Z,33.50
2023-01-30T01:20:48.284Z,32.05
2023-01-30T01:24:02.662Z,35.33
2023-01-30T01:27:07.254Z,31.58
2023-01-30T01:30:13.400Z,30.55
2023-01-30T01:33:18.301Z,33.17
2023-01-30T01:36:51.555Z,29.27
2023-01-30T01:40:06.168Z,34.17
2023-01-30T01:43:17.679Z,32.67
2023-01-30T01:46:33.212Z,32.28
2023-01-30T01:49:38.360Z,30.10
2023-01-30T01:52:43.800Z,30.70
2023-01-30T01:55:51.978Z,32.65
2023-01-30T01:59:01.599Z,32.67
2023-01-30T02:02:11.381Z,32.75
2023-01-30T02:05:17.914Z,31.75
2023-01-30T02:08:29.015Z,30.60
2023-01-30T02:11:53.418Z,32.65
2023-01-30T02:15:01.313Z,31.77
2023-01-30T02:18:08.290Z,31.25
2023-01-30T02:21:55.439Z,30.80
2023-01-30T02:25:20.762Z,28.50
2023-01-30T02:28:44.387Z,26.98
2023-01-30T02:32:07.831Z,30.00
2023-01-30T02:35:31.237Z,26.08
2023-01-30T02:38:48.535Z,27.88
2023-01-30T02:42:22.831Z,24.13
2023-01-30T02:49:09.083Z,23.15
2023-01-30T02:52:18.414Z,20.08
2023-01-30T02:55:28.285Z,20.88
2023-01-30T02:59:00.090Z,21.38
2023-01-30T03:02:26.715Z,20.02
2023-01-30T03:06:08.590Z,18.13
2023-01-30T03:09:33.514Z,15.52
2023-01-30T03:16:40.369Z,13.75
2023-01-30T03:19:45.415Z,13.60
2023-01-30T03:22:50.074Z,12.77
2023-01-30T03:25:55.367Z,12.77
2023-01-30T03:29:01.463Z,12.40
2023-01-30T03:32:06.826Z,12.32
2023-01-30T03:35:12.071Z,11.20
2023-01-30T03:38:18.277Z,11.48
2023-01-30T03:41:24.612Z,11.30
2023-01-30T03:44:29.138Z,9.70
2023-01-30T03:47:33.884Z,10.68
2023-01-30T03:50:38.915Z,9.30
2023-01-30T03:53:44.433Z,9.15
2023-01-30T03:56:50.180Z,10.05
2023-01-30T03:59:55.139Z,8.77
2023-01-30T04:03:00.143Z,9.13
2023-01-30T04:06:05.199Z,9.25
2023-01-30T04:09:10.042Z,9.55
2023-01-30T04:12:19.924Z,8.52
2023-01-30T04:15:38.171Z,8.93
2023-01-30T04:19:09.339Z,9.90
2023-01-30T04:22:16.247Z,8.57
2023-01-30T04:25:21.372Z,10.55
2023-01-30T04:28:26.426Z,10.20
2023-01-30T04:31:31.912Z,9.73
2023-01-30T04:34:45.105Z,11.05
2023-01-30T04:37:49.729Z,11.30
2023-01-30T04:40:58.179Z,10.02
2023-01-30T04:44:05.172Z,9.80
2023-01-30T04:47:16.872Z,11.02
2023-01-30T04:50:21.818Z,8.75
2023-01-30T04:53:26.906Z,8.65
2023-01-30T04:56:31.600Z,8.20
2023-01-30T04:59:35.997Z,9.75
2023-01-30T05:02:43.861Z,9.50
2023-01-30T05:05:49.155Z,8.57
2023-01-30T05:08:56.095Z,7.85
2023-01-30T05:12:00.858Z,8.25
2023-01-30T05:15:06.912Z,7.93
2023-01-30T05:18:11.632Z,8.25
2023-01-30T05:21:23.419Z,8.68
2023-01-30T05:24:27.988Z,6.45
2023-01-30T05:27:32.713Z,6.20
2023-01-30T05:30:37.391Z,6.40
2023-01-30T05:33:42.152Z,6.82
2023-01-30T05:36:46.782Z,5.82
2023-01-30T05:39:51.544Z,6.25
2023-01-30T05:42:56.127Z,4.40
2023-01-30T05:46:03.212Z,4.35
2023-01-30T05:49:07.718Z,4.38
2023-01-30T05:52:12.418Z,4.60
2023-01-30T05:55:17.193Z,4.00
2023-01-30T05:58:21.764Z,4.57
2023-01-30T06:01:28.050Z,4.30
2023-01-30T06:04:32.460Z,5.07
2023-01-30T06:07:36.819Z,3.50
2023-01-30T06:10:41.412Z,3.80
2023-01-30T06:13:46.111Z,3.63
2023-01-30T06:16:50.860Z,3.75
2023-01-30T06:19:55.349Z,3.05
2023-01-30T06:23:00.105Z,2.63
2023-01-30T06:26:07.983Z,3.35
2023-01-30T06:29:14.000Z,3.20
2023-01-30T06:32:18.724Z,3.08
2023-01-30T06:35:23.402Z,3.05
2023-01-30T06:38:27.701Z,3.72
2023-01-30T06:41:32.325Z,3.20
2023-01-30T06:44:36.984Z,2.80
2023-01-30T06:47:50.067Z,4.15
2023-01-30T06:50:54.512Z,3.10
2023-01-30T06:53:59.164Z,2.83
2023-01-30T06:57:04.564Z,2.47
2023-01-30T07:00:19.716Z,2.53
2023-01-30T07:03:24.254Z,4.65
2023-01-30T07:06:29.330Z,2.85
2023-01-30T07:09:33.893Z,3.70
2023-01-30T07:12:38.932Z,3.25
2023-01-30T07:15:43.197Z,2.70
2023-01-30T07:18:48.995Z,2.92
2023-01-30T07:21:53.499Z,3.70
2023-01-30T07:24:58.226Z,2.50
2023-01-30T07:28:03.557Z,2.95
2023-01-30T07:31:08.403Z,3.63
2023-01-30T07:34:12.594Z,3.38
2023-01-30T07:37:17.306Z,3.10
2023-01-30T07:40:23.628Z,2.63
2023-01-30T07:43:28.319Z,2.58
2023-01-30T07:46:35.202Z,3.47
2023-01-30T07:49:39.972Z,3.00
2023-01-30T07:52:45.590Z,3.30
2023-01-30T07:55:50.405Z,3.25
2023-01-30T07:58:55.814Z,3.28
2023-01-30T08:02:00.250Z,2.50
2023-01-30T08:05:06.379Z,4.95
2023-01-30T08:08:11.036Z,3.58
2023-01-30T08:11:16.012Z,3.25
2023-01-30T08:14:20.645Z,2.97
2023-01-30T08:17:25.315Z,3.85
2023-01-30T08:20:30.107Z,3.03
2023-01-30T08:23:34.875Z,3.42
2023-01-30T08:26:49.348Z,2.83
2023-01-30T08:29:54.193Z,2.65
2023-01-30T08:32:59.262Z,3.45
2023-01-30T08:36:04.562Z,2.42
2023-01-30T08:39:09.096Z,3.22
2023-01-30T08:42:13.888Z,2.97
2023-01-30T08:45:18.458Z,3.45
2023-01-30T08:48:23.592Z,3.85
2023-01-30T08:51:29.157Z,3.20
2023-01-30T08:54:33.684Z,2.72
2023-01-30T08:57:38.615Z,2.72
2023-01-30T09:00:45.562Z,3.38
2023-01-30T09:03:50.685Z,3.15
2023-01-30T09:06:55.265Z,2.90
2023-01-30T09:09:59.626Z,3.22
2023-01-30T09:13:05.533Z,2.90
2023-01-30T09:16:12.384Z,3.22
2023-01-30T09:19:17.134Z,3.35
2023-01-30T09:22:22.273Z,3.28
2023-01-30T09:25:27.311Z,3.92
2023-01-30T09:28:32.655Z,2.55
2023-01-30T09:31:37.800Z,3.88
2023-01-30T09:34:42.361Z,3.42
2023-01-30T09:37:52.467Z,3.45
2023-01-30T09:40:59.886Z,2.85
2023-01-30T09:44:48.160Z,3.38
2023-01-30T09:48:21.116Z,2.78
2023-01-30T09:51:49.259Z,2.92
2023-01-30T09:55:16.550Z,3.15
2023-01-30T09:58:27.333Z,3.50
2023-01-30T10:01:44.217Z,3.25
2023-01-30T10:05:00.845Z,3.15
2023-01-30T10:09:09.696Z,3.75
2023-01-30T10:12:47.494Z,3.53
2023-01-30T10:16:31.187Z,3.30
2023-01-30T10:20:10.864Z,3.45
2023-01-30T10:23:57.023Z,3.15
2023-01-30T10:27:04.461Z,3.72
2023-01-30T10:30:15.889Z,2.60
2023-01-30T10:33:51.300Z,2.97
2023-01-30T10:37:31.177Z,3.97
2023-01-30T10:41:10.475Z,3.88
2023-01-30T10:44:18.483Z,2.97
2023-01-30T10:47:53.283Z,2.55
2023-01-30T10:51:14.001Z,3.17
2023-01-30T10:54:45.691Z,2.85
2023-01-30T10:58:14.006Z,2.95
2023-01-30T11:01:32.037Z,3.17
2023-01-30T11:05:19.266Z,2.67
2023-01-30T11:08:33.633Z,3.40
2023-01-30T11:15:04.330Z,3.13
2023-01-30T11:18:42.234Z,2.40
2023-01-30T11:21:43.397Z,3.55
2023-01-30T11:24:48.966Z,3.30
2023-01-30T11:28:03.336Z,3.20
2023-01-30T11:31:40.472Z,3.40
2023-01-30T11:35:00.865Z,3.83
2023-01-30T11:38:23.652Z,3.45
2023-01-30T11:41:28.972Z,3.15
2023-01-30T11:44:40.868Z,2.78
2023-01-30T11:48:03.693Z,2.95
2023-01-30T11:51:11.153Z,4.15
2023-01-30T11:54:39.531Z,3.10
2023-01-30T11:57:58.474Z,3.17
2023-01-30T12:01:04.164Z,2.85
2023-01-30T12:04:12.609Z,2.90
2023-01-30T12:07:25.078Z,3.65
2023-01-30T12:10:31.675Z,3.25
2023-01-30T12:13:43.556Z,3.47
2023-01-30T12:17:06.031Z,4.25
2023-01-30T12:20:30.303Z,2.60
2023-01-30T12:23:44.639Z,3.33
2023-01-30T12:33:42.029Z,2.80
2023-01-30T12:37:08.513Z,3.20
2023-01-30T12:40:33.900Z,3.10
2023-01-30T12:44:07.091Z,3.55
2023-01-30T12:47:42.600Z,4.07
2023-01-30T12:51:19.191Z,2.67
2023-01-30T12:54:42.318Z,3.53
2023-01-30T12:58:17.314Z,3.33
2023-01-30T13:01:47.771Z,4.10
2023-01-30T13:05:25.709Z,3.15
2023-01-30T13:08:44.993Z,4.15
2023-01-30T13:12:16.953Z,3.50
2023-01-30T13:15:46.524Z,3.55
2023-01-30T13:19:03.333Z,3.17
2023-01-30T13:22:31.425Z,4.57
2023-01-30T13:26:11.317Z,2.95
2023-01-30T13:29:35.594Z,3.15
2023-01-30T13:35:55.992Z,3.72
2023-01-30T13:39:33.252Z,3.70
2023-01-30T13:42:46.897Z,2.63
2023-01-30T13:45:55.720Z,2.65
2023-01-30T13:49:29.878Z,3.30
2023-01-30T13:52:44.021Z,3.45
2023-01-30T13:56:02.661Z,2.85
2023-01-30T13:59:37.234Z,4.00
2023-01-30T14:03:04.285Z,2.33
2023-01-30T14:06:14.614Z,4.45
2023-01-30T14:09:26.429Z,3.10
2023-01-30T14:12:53.710Z,3.50
2023-01-30T14:16:04.683Z,3.03
2023-01-30T14:19:31.514Z,3.63
2023-01-30T14:23:01.497Z,3.13
2023-01-30T14:26:06.217Z,3.25
2023-01-30T14:29:11.789Z,3.45
2023-01-30T14:32:19.756Z,3.17
2023-01-30T14:35:33.119Z,3.50
2023-01-30T14:38:40.315Z,3.20
2023-01-30T14:42:04.719Z,2.72
2023-01-30T14:45:16.882Z,3.28
2023-01-30T14:48:55.837Z,3.40
2023-01-30T14:52:02.370Z,3.42
2023-01-30T14:55:21.333Z,3.10
2023-01-30T14:58:26.089Z,3.22
2023-01-30T15:02:14.853Z,2.88
2023-01-30T15:05:37.291Z,3.15
2023-01-30T15:08:44.378Z,2.97
2023-01-30T15:12:20.388Z,3.03
2023-01-30T15:15:47.327Z,3.00
2023-01-30T15:19:36.938Z,3.25
2023-01-30T15:23:19.480Z,3.67
2023-01-30T15:27:04.329Z,3.67
2023-01-30T15:30:21.618Z,3.95
2023-01-30T15:33:31.550Z,3.50
2023-01-30T15:36:37.121Z,3.33
2023-01-30T15:39:41.867Z,3.28
2023-01-30T15:43:01.666Z,2.28
2023-01-30T15:46:24.349Z,2.67
2023-01-30T15:49:51.921Z,3.38
2023-01-30T15:52:58.302Z,3.15
2023-01-30T15:56:08.889Z,2.65
2023-01-30T15:59:38.300Z,2.97
2023-01-30T16:02:43.194Z,3.17
2023-01-30T16:05:55.239Z,3.30
2023-01-30T16:09:22.951Z,3.47
2023-01-30T16:12:30.615Z,2.95
2023-01-30T16:16:03.695Z,4.28
2023-01-30T16:19:09.120Z,3.30
2023-01-30T16:22:19.897Z,3.20
2023-01-30T16:25:29.755Z,3.63
2023-01-30T16:28:34.714Z,3.53
2023-01-30T16:31:41.291Z,4.10
2023-01-30T16:34:46.191Z,3.03
2023-01-30T16:37:52.801Z,2.80
2023-01-30T16:40:59.410Z,2.50
2023-01-30T16:44:32.569Z,2.88
2023-01-30T16:47:37.912Z,3.72
2023-01-30T16:50:44.689Z,4.18
2023-01-30T16:54:24.922Z,2.85
2023-01-30T16:57:45.573Z,3.17
2023-01-30T17:00:51.459Z,3.10
2023-01-30T17:04:03.258Z,2.33
2023-01-30T17:07:07.829Z,3.00
2023-01-30T17:10:28.224Z,2.35
2023-01-30T17:13:43.654Z,2.40
2023-01-30T17:17:09.914Z,4.07
2023-01-30T17:20:16.848Z,4.40
2023-01-30T17:23:23.047Z,4.43
2023-01-30T17:26:28.398Z,3.67
2023-01-30T17:29:43.514Z,3.97
2023-01-30T17:32:50.741Z,4.05
2023-01-30T17:35:55.619Z,5.82
2023-01-30T17:39:00.557Z,5.15
2023-01-30T17:42:10.373Z,6.03
2023-01-30T17:45:15.144Z,5.70
2023-01-30T17:48:20.011Z,7.32
2023-01-30T17:51:24.993Z,7.78
2023-01-30T17:54:30.222Z,6.47
2023-01-30T17:57:34.535Z,4.85
2023-01-30T18:00:39.239Z,4.63
2023-01-30T18:03:45.046Z,4.45
2023-01-30T18:06:55.605Z,4.57
2023-01-30T18:10:00.215Z,9.52
2023-01-30T18:13:05.100Z,7.15
2023-01-30T18:16:28.744Z,5.97
2023-01-30T18:19:33.572Z,5.20
2023-01-30T18:22:38.536Z,4.47
2023-01-30T18:25:43.150Z,4.80
2023-01-30T18:28:48.834Z,4.80
2023-01-30T18:31:53.302Z,4.03
2023-01-30T18:34:58.129Z,4.72
2023-01-30T18:38:03.220Z,5.15
2023-01-30T18:41:17.378Z,3.38
2023-01-30T18:44:22.115Z,3.13
2023-01-30T18:47:28.641Z,3.40
2023-01-30T18:50:33.440Z,2.72
2023-01-30T18:53:38.885Z,3.58
2023-01-30T18:56:43.151Z,2.03
2023-01-30T18:59:47.874Z,2.53
2023-01-30T19:02:53.835Z,2.83
2023-01-30T19:06:01.638Z,3.47
2023-01-30T19:09:07.617Z,2.70
2023-01-30T19:12:30.483Z,3.05
2023-01-30T19:15:35.825Z,3.13
2023-01-30T19:18:40.772Z,2.90
2023-01-30T19:21:45.274Z,3.10
2023-01-30T19:24:49.820Z,3.13
2023-01-30T19:27:55.729Z,3.55
2023-01-30T19:31:07.216Z,2.90
2023-01-30T19:34:12.040Z,2.38
2023-01-30T19:37:16.547Z,3.60
2023-01-30T19:40:21.946Z,2.10
2023-01-30T19:43:26.794Z,2.53
2023-01-30T19:46:32.599Z,2.08
2023-01-30T19:49:37.585Z,2.30
2023-01-30T19:52:41.987Z,2.80
2023-01-30T19:55:51.085Z,2.35
2023-01-30T19:58:58.736Z,3.80
2023-01-30T20:02:03.241Z,3.40
2023-01-30T20:05:09.019Z,3.35
2023-01-30T20:08:25.590Z,2.15
2023-01-30T20:11:37.747Z,2.60
2023-01-30T20:14:42.542Z,3.20
2023-01-30T20:17:46.957Z,2.35
2023-01-30T20:20:51.544Z,2.85
2023-01-30T20:23:56.676Z,2.58
2023-01-30T20:27:01.500Z,5.05
2023-01-30T20:30:07.468Z,3.22
2023-01-30T20:33:12.179Z,3.00
2023-01-30T20:36:19.892Z,3.55
2023-01-30T20:39:24.775Z,3.85
2023-01-30T20:42:29.707Z,13.23
2023-01-30T20:45:34.531Z,9.30
2023-01-30T20:48:42.337Z,10.43
2023-01-30T20:51:50.296Z,18.40
2023-01-30T20:54:55.021Z,15.55
2023-01-30T20:58:00.476Z,12.35
2023-01-30T21:01:18.369Z,10.85
2023-01-30T21:04:27.154Z,7.05
2023-01-30T21:07:35.134Z,6.43
2023-01-30T21:10:46.454Z,5.03
2023-01-30T21:13:51.151Z,4.40
2023-01-30T21:16:55.967Z,3.95
2023-01-30T21:20:00.808Z,4.95
2023-01-30T21:23:05.902Z,6.65
2023-01-30T21:26:11.818Z,4.80
2023-01-30T21:29:20.680Z,4.75
2023-01-30T21:32:25.434Z,5.28
2023-01-30T21:35:30.474Z,4.70
2023-01-30T21:38:54.031Z,4.95
2023-01-30T21:41:58.780Z,3.05
2023-01-30T21:45:06.411Z,3.10
2023-01-30T21:48:11.248Z,2.97
2023-01-30T21:51:15.893Z,2.85
2023-01-30T21:54:21.405Z,2.70
2023-01-30T21:57:25.830Z,2.72
2023-01-30T22:00:30.322Z,2.88
2023-01-30T22:03:35.667Z,2.85
2023-01-30T22:06:41.244Z,2.85
2023-01-30T22:09:46.013Z,3.60
2023-01-30T22:12:50.421Z,2.22
2023-01-30T22:15:55.067Z,2.65
2023-01-30T22:19:03.763Z,2.95
2023-01-30T22:22:08.116Z,3.17
2023-01-30T22:25:12.306Z,2.42
2023-01-30T22:28:16.852Z,3.28
2023-01-30T22:31:22.907Z,2.88
2023-01-30T22:34:27.851Z,2.20
2023-01-30T22:37:32.976Z,2.33
2023-01-30T22:40:37.266Z,2.60
2023-01-30T22:43:55.285Z,2.22
2023-01-30T22:47:00.059Z,2.28
2023-01-30T22:50:06.639Z,2.42
2023-01-30T22:53:11.137Z,3.20
2023-01-30T22:56:20.989Z,1.85
2023-01-30T22:59:25.455Z,1.73
2023-01-30T23:02:30.006Z,1.98
2023-01-30T23:05:34.811Z,2.40
2023-01-30T23:08:42.913Z,2.25
2023-01-30T23:12:17.577Z,2.33
2023-01-30T23:15:23.030Z,2.20
2023-01-30T23:18:46.330Z,2.45
2023-01-30T23:21:51.294Z,2.17
2023-01-30T23:24:56.042Z,2.17
2023-01-30T23:28:00.432Z,2.35
2023-01-30T23:31:15.702Z,2.63
2023-01-30T23:34:20.588Z,2.97
2023-01-30T23:37:45.138Z,2.35
2023-01-30T23:40:49.704Z,2.25
2023-01-30T23:43:55.610Z,2.53
2023-01-30T23:46:59.841Z,2.42
2023-01-30T23:50:04.586Z,3.03
2023-01-30T23:53:10.768Z,2.60
2023-01-30T23:56:15.934Z,1.98
2023-01-30T23:59:20.892Z,2.47
